sensor_id;sensor_type;location;lat;lon;timestamp;pressure;altitude;pressure_sealevel;temperature;humidity
39243;BME280;29823;47.404;8.566;2023-04-01T00:00:30;95500.28;;;8.88;100.00
39243;BME280;29823;47.404;8.566;2023-04-01T00:02:59;95507.22;;;8.89;100.00
39243;BME280;29823;47.404;8.566;2023-04-01T00:05:28;95500.75;;;8.85;100.00
39243;BME280;29823;47.404;8.566;2023-04-01T00:07:56;95499.84;;;8.96;100.00
39243;BME280;29823;47.404;8.566;2023-04-01T00:10:23;95504.94;;;8.98;100.00
39243;BME280;29823;47.404;8.566;2023-04-01T00:12:51;95503.56;;;8.95;100.00
39243;BME280;29823;47.404;8.566;2023-04-01T00:15:20;95498.09;;;8.85;100.00
39243;BME280;29823;47.404;8.566;2023-04-01T00:17:49;95512.63;;;8.94;100.00
39243;BME280;29823;47.404;8.566;2023-04-01T00:20:17;95514.16;;;8.90;100.00
39243;BME280;29823;47.404;8.566;2023-04-01T00:22:45;95509.22;;;8.99;100.00
39243;BME280;29823;47.404;8.566;2023-04-01T00:25:13;95506.28;;;9.00;100.00
39243;BME280;29823;47.404;8.566;2023-04-01T00:27:41;95511.69;;;9.05;100.00
39243;BME280;29823;47.404;8.566;2023-04-01T00:30:10;95514.91;;;9.07;100.00
39243;BME280;29823;47.404;8.566;2023-04-01T00:32:38;95515.34;;;8.99;100.00
39243;BME280;29823;47.404;8.566;2023-04-01T00:35:08;95515.13;;;9.01;100.00
39243;BME280;29823;47.404;8.566;2023-04-01T00:37:36;95506.38;;;9.05;100.00
39243;BME280;29823;47.404;8.566;2023-04-01T00:40:23;95502.25;;;8.98;100.00
39243;BME280;29823;47.404;8.566;2023-04-01T00:42:50;95512.06;;;8.92;100.00
39243;BME280;29823;47.404;8.566;2023-04-01T00:45:33;95511.09;;;8.98;100.00
39243;BME280;29823;47.404;8.566;2023-04-01T00:48:04;95504.69;;;8.99;100.00
39243;BME280;29823;47.404;8.566;2023-04-01T00:50:35;95514.28;;;9.00;100.00
39243;BME280;29823;47.404;8.566;2023-04-01T00:53:05;95509.22;;;8.99;100.00
39243;BME280;29823;47.404;8.566;2023-04-01T00:55:35;95504.63;;;8.94;100.00
39243;BME280;29823;47.404;8.566;2023-04-01T00:58:07;95512.53;;;8.89;100.00
39243;BME280;29823;47.404;8.566;2023-04-01T01:00:37;95513.75;;;8.98;100.00
39243;BME280;29823;47.404;8.566;2023-04-01T01:03:05;95508.81;;;8.90;100.00
39243;BME280;29823;47.404;8.566;2023-04-01T01:05:46;95515.63;;;8.81;100.00
39243;BME280;29823;47.404;8.566;2023-04-01T01:08:24;95501.72;;;8.79;100.00
39243;BME280;29823;47.404;8.566;2023-04-01T01:10:57;95494.63;;;8.85;100.00
39243;BME280;29823;47.404;8.566;2023-04-01T01:13:27;95495.94;;;8.82;100.00
39243;BME280;29823;47.404;8.566;2023-04-01T01:16:00;95491.56;;;8.76;100.00
39243;BME280;29823;47.404;8.566;2023-04-01T01:18:35;95492.69;;;8.80;100.00
39243;BME280;29823;47.404;8.566;2023-04-01T01:21:27;95478.31;;;8.81;100.00
39243;BME280;29823;47.404;8.566;2023-04-01T01:24:11;95479.78;;;8.72;100.00
39243;BME280;29823;47.404;8.566;2023-04-01T01:26:53;95480.91;;;8.76;100.00
39243;BME280;29823;47.404;8.566;2023-04-01T01:29:34;95476.56;;;8.70;100.00
39243;BME280;29823;47.404;8.566;2023-04-01T01:32:16;95481.31;;;8.68;100.00
39243;BME280;29823;47.404;8.566;2023-04-01T01:34:51;95485.84;;;8.68;100.00
39243;BME280;29823;47.404;8.566;2023-04-01T01:37:25;95483.91;;;8.63;100.00
39243;BME280;29823;47.404;8.566;2023-04-01T01:39:59;95486.09;;;8.66;100.00
39243;BME280;29823;47.404;8.566;2023-04-01T01:42:31;95490.44;;;8.72;100.00
39243;BME280;29823;47.404;8.566;2023-04-01T01:45:01;95488.84;;;8.71;100.00
39243;BME280;29823;47.404;8.566;2023-04-01T01:47:30;95497.88;;;8.70;100.00
39243;BME280;29823;47.404;8.566;2023-04-01T01:49:59;95484.78;;;8.69;100.00
39243;BME280;29823;47.404;8.566;2023-04-01T01:52:29;95465.41;;;8.73;100.00
39243;BME280;29823;47.404;8.566;2023-04-01T01:54:58;95473.31;;;8.68;100.00
39243;BME280;29823;47.404;8.566;2023-04-01T01:57:29;95480.91;;;8.76;100.00
39243;BME280;29823;47.404;8.566;2023-04-01T02:00:03;95474.94;;;8.69;100.00
39243;BME280;29823;47.404;8.566;2023-04-01T02:02:35;95468.63;;;8.75;100.00
39243;BME280;29823;47.404;8.566;2023-04-01T02:05:04;95473.09;;;8.70;100.00
39243;BME280;29823;47.404;8.566;2023-04-01T02:07:35;95482.53;;;8.77;100.00
39243;BME280;29823;47.404;8.566;2023-04-01T02:10:05;95480.34;;;8.74;100.00
39243;BME280;29823;47.404;8.566;2023-04-01T02:12:34;95476.13;;;8.78;100.00
39243;BME280;29823;47.404;8.566;2023-04-01T02:15:06;95478.81;;;8.78;100.00
39243;BME280;29823;47.404;8.566;2023-04-01T02:17:38;95473.47;;;8.78;100.00
39243;BME280;29823;47.404;8.566;2023-04-01T02:20:09;95476.69;;;8.80;100.00
39243;BME280;29823;47.404;8.566;2023-04-01T02:22:44;95484.13;;;8.78;100.00
39243;BME280;29823;47.404;8.566;2023-04-01T02:25:16;95473.94;;;8.75;100.00
39243;BME280;29823;47.404;8.566;2023-04-01T02:27:45;95472.03;;;8.71;100.00
39243;BME280;29823;47.404;8.566;2023-04-01T02:30:15;95489.94;;;8.75;100.00
39243;BME280;29823;47.404;8.566;2023-04-01T02:32:44;95467.28;;;8.56;100.00
39243;BME280;29823;47.404;8.566;2023-04-01T02:35:14;95475.59;;;8.60;100.00
39243;BME280;29823;47.404;8.566;2023-04-01T02:37:45;95482.78;;;8.59;100.00
39243;BME280;29823;47.404;8.566;2023-04-01T02:40:15;95469.44;;;8.59;100.00
39243;BME280;29823;47.404;8.566;2023-04-01T02:42:43;95478.34;;;8.65;100.00
39243;BME280;29823;47.404;8.566;2023-04-01T02:45:13;95479.22;;;8.70;100.00
39243;BME280;29823;47.404;8.566;2023-04-01T02:47:41;95470.91;;;8.67;100.00
39243;BME280;29823;47.404;8.566;2023-04-01T02:50:09;95476.31;;;8.72;100.00
39243;BME280;29823;47.404;8.566;2023-04-01T02:52:37;95462.81;;;8.62;100.00
39243;BME280;29823;47.404;8.566;2023-04-01T02:55:07;95458.78;;;8.59;100.00
39243;BME280;29823;47.404;8.566;2023-04-01T02:57:35;95458.63;;;8.66;100.00
39243;BME280;29823;47.404;8.566;2023-04-01T03:00:04;95441.72;;;8.55;100.00
39243;BME280;29823;47.404;8.566;2023-04-01T03:02:38;95451.78;;;8.53;100.00
39243;BME280;29823;47.404;8.566;2023-04-01T03:05:06;95457.09;;;8.53;100.00
39243;BME280;29823;47.404;8.566;2023-04-01T03:07:34;95451.38;;;8.45;100.00
39243;BME280;29823;47.404;8.566;2023-04-01T03:10:02;95454.44;;;8.53;100.00
39243;BME280;29823;47.404;8.566;2023-04-01T03:12:31;95454.88;;;8.45;100.00
39243;BME280;29823;47.404;8.566;2023-04-01T03:15:00;95455.75;;;8.34;100.00
39243;BME280;29823;47.404;8.566;2023-04-01T03:17:37;95447.38;;;8.26;100.00
39243;BME280;29823;47.404;8.566;2023-04-01T03:20:06;95464.81;;;8.33;100.00
39243;BME280;29823;47.404;8.566;2023-04-01T03:22:35;95461.56;;;8.31;100.00
39243;BME280;29823;47.404;8.566;2023-04-01T03:25:03;95464.06;;;8.21;100.00
39243;BME280;29823;47.404;8.566;2023-04-01T03:27:33;95457.53;;;8.29;100.00
39243;BME280;29823;47.404;8.566;2023-04-01T03:30:02;95470.53;;;8.25;100.00
39243;BME280;29823;47.404;8.566;2023-04-01T03:32:30;95463.59;;;8.24;100.00
39243;BME280;29823;47.404;8.566;2023-04-01T03:34:58;95459.16;;;8.30;100.00
39243;BME280;29823;47.404;8.566;2023-04-01T03:37:26;95446.09;;;8.28;100.00
39243;BME280;29823;47.404;8.566;2023-04-01T03:39:54;95458.72;;;8.21;100.00
39243;BME280;29823;47.404;8.566;2023-04-01T03:42:21;95447.41;;;8.14;100.00
39243;BME280;29823;47.404;8.566;2023-04-01T03:44:51;95454.13;;;8.17;100.00
39243;BME280;29823;47.404;8.566;2023-04-01T03:47:19;95453.19;;;8.23;100.00
39243;BME280;29823;47.404;8.566;2023-04-01T03:49:46;95463.59;;;8.24;100.00
39243;BME280;29823;47.404;8.566;2023-04-01T03:52:14;95460.94;;;8.24;100.00
39243;BME280;29823;47.404;8.566;2023-04-01T03:54:42;95458.72;;;8.21;100.00
39243;BME280;29823;47.404;8.566;2023-04-01T03:57:10;95456.56;;;8.35;100.00
39243;BME280;29823;47.404;8.566;2023-04-01T03:59:38;95465.53;;;8.45;100.00
39243;BME280;29823;47.404;8.566;2023-04-01T04:02:07;95459.47;;;8.50;100.00
39243;BME280;29823;47.404;8.566;2023-04-01T04:04:35;95463.66;;;8.62;100.00
39243;BME280;29823;47.404;8.566;2023-04-01T04:07:03;95457.50;;;8.62;100.00
39243;BME280;29823;47.404;8.566;2023-04-01T04:09:31;95461.06;;;8.67;100.00
39243;BME280;29823;47.404;8.566;2023-04-01T04:11:58;95465.75;;;8.60;100.00
39243;BME280;29823;47.404;8.566;2023-04-01T04:14:26;95452.91;;;8.57;100.00
39243;BME280;29823;47.404;8.566;2023-04-01T04:16:54;95456.09;;;8.54;100.00
39243;BME280;29823;47.404;8.566;2023-04-01T04:19:23;95459.44;;;8.66;100.00
39243;BME280;29823;47.404;8.566;2023-04-01T04:21:51;95454.44;;;8.53;100.00
39243;BME280;29823;47.404;8.566;2023-04-01T04:24:19;95431.06;;;8.39;100.00
39243;BME280;29823;47.404;8.566;2023-04-01T04:26:47;95463.66;;;8.62;100.00
39243;BME280;29823;47.404;8.566;2023-04-01T04:29:15;95465.84;;;8.65;100.00
39243;BME280;29823;47.404;8.566;2023-04-01T04:31:43;95465.19;;;8.58;100.00
39243;BME280;29823;47.404;8.566;2023-04-01T04:34:11;95465.75;;;8.60;100.00
39243;BME280;29823;47.404;8.566;2023-04-01T04:36:40;95466.69;;;8.71;100.00
39243;BME280;29823;47.404;8.566;2023-04-01T04:39:08;95467.59;;;8.76;100.00
39243;BME280;29823;47.404;8.566;2023-04-01T04:41:37;95473.16;;;8.58;100.00
39243;BME280;29823;47.404;8.566;2023-04-01T04:44:05;95475.63;;;8.43;100.00
39243;BME280;29823;47.404;8.566;2023-04-01T04:46:33;95474.78;;;8.26;100.00
39243;BME280;29823;47.404;8.566;2023-04-01T04:49:00;95472.13;;;8.26;100.00
39243;BME280;29823;47.404;8.566;2023-04-01T04:51:28;95469.03;;;8.18;100.00
39243;BME280;29823;47.404;8.566;2023-04-01T04:53:57;95497.66;;;8.22;100.00
39243;BME280;29823;47.404;8.566;2023-04-01T04:56:26;95500.97;;;8.18;100.00
39243;BME280;29823;47.404;8.566;2023-04-01T04:58:54;95501.91;;;8.23;100.00
39243;BME280;29823;47.404;8.566;2023-04-01T05:01:22;95496.09;;;8.26;100.00
39243;BME280;29823;47.404;8.566;2023-04-01T05:03:50;95504.00;;;8.21;100.00
39243;BME280;29823;47.404;8.566;2023-04-01T05:06:18;95487.34;;;8.14;100.00
39243;BME280;29823;47.404;8.566;2023-04-01T05:08:48;95495.09;;;8.16;100.00
39243;BME280;29823;47.404;8.566;2023-04-01T05:11:19;95498.50;;;8.11;100.00
39243;BME280;29823;47.404;8.566;2023-04-01T05:13:47;95509.69;;;8.13;100.00
39243;BME280;29823;47.404;8.566;2023-04-01T05:16:18;95510.44;;;8.09;100.00
39243;BME280;29823;47.404;8.566;2023-04-01T05:18:47;95512.50;;;8.07;100.00
39243;BME280;29823;47.404;8.566;2023-04-01T05:21:15;95499.44;;;8.05;100.00
39243;BME280;29823;47.404;8.566;2023-04-01T05:23:43;95506.44;;;7.95;100.00
39243;BME280;29823;47.404;8.566;2023-04-01T05:26:13;95507.91;;;8.02;100.00
39243;BME280;29823;47.404;8.566;2023-04-01T05:28:43;95502.59;;;8.02;100.00
39243;BME280;29823;47.404;8.566;2023-04-01T05:31:11;95507.19;;;8.07;100.00
39243;BME280;29823;47.404;8.566;2023-04-01T05:33:39;95511.38;;;8.03;100.00
39243;BME280;29823;47.404;8.566;2023-04-01T05:36:09;95516.53;;;8.09;100.00
39243;BME280;29823;47.404;8.566;2023-04-01T05:38:38;95532.50;;;8.09;100.00
39243;BME280;29823;47.404;8.566;2023-04-01T05:41:05;95524.63;;;8.14;100.00
39243;BME280;29823;47.404;8.566;2023-04-01T05:43:35;95518.88;;;8.06;100.00
39243;BME280;29823;47.404;8.566;2023-04-01T05:46:05;95527.59;;;8.01;100.00
39243;BME280;29823;47.404;8.566;2023-04-01T05:48:33;95504.00;;;7.93;100.00
39243;BME280;29823;47.404;8.566;2023-04-01T05:51:01;95526.69;;;7.96;100.00
39243;BME280;29823;47.404;8.566;2023-04-01T05:53:29;95519.78;;;8.11;100.00
39243;BME280;29823;47.404;8.566;2023-04-01T05:55:57;95514.38;;;8.06;100.00
39243;BME280;29823;47.404;8.566;2023-04-01T05:58:29;95508.88;;;8.13;100.00
39243;BME280;29823;47.404;8.566;2023-04-01T06:01:01;95514.19;;;8.24;100.00
39243;BME280;29823;47.404;8.566;2023-04-01T06:03:39;95518.38;;;8.37;100.00
39243;BME280;29823;47.404;8.566;2023-04-01T06:06:13;95513.88;;;8.54;100.00
39243;BME280;29823;47.404;8.566;2023-04-01T06:08:42;95519.19;;;8.54;100.00
39243;BME280;29823;47.404;8.566;2023-04-01T06:11:18;95513.38;;;8.40;100.00
39243;BME280;29823;47.404;8.566;2023-04-01T06:14:00;95525.19;;;8.44;100.00
39243;BME280;29823;47.404;8.566;2023-04-01T06:16:40;95518.88;;;8.50;100.00
39243;BME280;29823;47.404;8.566;2023-04-01T06:19:24;95513.75;;;8.82;100.00
39243;BME280;29823;47.404;8.566;2023-04-01T06:22:12;95513.91;;;8.92;100.00
39243;BME280;29823;47.404;8.566;2023-04-01T06:24:53;95514.59;;;9.04;100.00
39243;BME280;29823;47.404;8.566;2023-04-01T06:27:40;95514.50;;;9.15;100.00
39243;BME280;29823;47.404;8.566;2023-04-01T06:30:24;95512.97;;;9.19;100.00
39243;BME280;29823;47.404;8.566;2023-04-01T06:33:02;95511.06;;;9.36;100.00
39243;BME280;29823;47.404;8.566;2023-04-01T06:35:44;95507.00;;;9.12;100.00
39243;BME280;29823;47.404;8.566;2023-04-01T06:38:37;95496.78;;;9.26;100.00
39243;BME280;29823;47.404;8.566;2023-04-01T06:41:25;95503.25;;;9.51;100.00
39243;BME280;29823;47.404;8.566;2023-04-01T06:44:07;95506.66;;;9.68;100.00
39243;BME280;29823;47.404;8.566;2023-04-01T06:46:44;95515.03;;;10.03;100.00
39243;BME280;29823;47.404;8.566;2023-04-01T06:49:36;95504.75;;;9.90;100.00
39243;BME280;29823;47.404;8.566;2023-04-01T06:52:16;95503.22;;;9.73;100.00
39243;BME280;29823;47.404;8.566;2023-04-01T06:54:52;95503.50;;;9.76;100.00
39243;BME280;29823;47.404;8.566;2023-04-01T06:57:25;95498.59;;;9.90;100.00
39243;BME280;29823;47.404;8.566;2023-04-01T06:59:58;95494.38;;;9.94;100.00
39243;BME280;29823;47.404;8.566;2023-04-01T07:02:33;95492.75;;;9.93;100.00
39243;BME280;29823;47.404;8.566;2023-04-01T07:05:04;95494.28;;;10.10;100.00
39243;BME280;29823;47.404;8.566;2023-04-01T07:07:38;95498.78;;;9.83;100.00
39243;BME280;29823;47.404;8.566;2023-04-01T07:10:13;95504.34;;;10.03;100.00
39243;BME280;29823;47.404;8.566;2023-04-01T07:12:47;95497.94;;;9.78;100.00
39243;BME280;29823;47.404;8.566;2023-04-01T07:15:19;95501.13;;;10.01;100.00
39243;BME280;29823;47.404;8.566;2023-04-01T07:17:53;95505.88;;;9.99;100.00
39243;BME280;29823;47.404;8.566;2023-04-01T07:20:25;95498.84;;;10.10;100.00
39243;BME280;29823;47.404;8.566;2023-04-01T07:23:00;95514.38;;;9.91;100.00
39243;BME280;29823;47.404;8.566;2023-04-01T07:25:33;95524.75;;;9.88;100.00
39243;BME280;29823;47.404;8.566;2023-04-01T07:28:06;95516.31;;;9.74;100.00
39243;BME280;29823;47.404;8.566;2023-04-01T07:30:43;95519.81;;;9.53;100.00
39243;BME280;29823;47.404;8.566;2023-04-01T07:33:16;95520.19;;;9.40;100.00
39243;BME280;29823;47.404;8.566;2023-04-01T07:35:51;95526.75;;;9.33;100.00
39243;BME280;29823;47.404;8.566;2023-04-01T07:38:28;95530.66;;;9.25;100.00
39243;BME280;29823;47.404;8.566;2023-04-01T07:41:07;95522.78;;;9.35;100.00
39243;BME280;29823;47.404;8.566;2023-04-01T07:43:47;95518.81;;;9.59;100.00
39243;BME280;29823;47.404;8.566;2023-04-01T07:46:34;95529.09;;;9.72;100.00
39243;BME280;29823;47.404;8.566;2023-04-01T07:49:06;95539.56;;;9.79;100.00
39243;BME280;29823;47.404;8.566;2023-04-01T07:51:42;95525.47;;;9.83;100.00
39243;BME280;29823;47.404;8.566;2023-04-01T07:54:21;95537.44;;;10.02;100.00
39243;BME280;29823;47.404;8.566;2023-04-01T07:56:54;95539.88;;;9.82;100.00
39243;BME280;29823;47.404;8.566;2023-04-01T07:59:29;95539.88;;;9.82;100.00
39243;BME280;29823;47.404;8.566;2023-04-01T08:02:07;95547.75;;;9.67;100.00
39243;BME280;29823;47.404;8.566;2023-04-01T08:04:49;95536.84;;;9.74;100.00
39243;BME280;29823;47.404;8.566;2023-04-01T08:07:23;95544.50;;;9.65;100.00
39243;BME280;29823;47.404;8.566;2023-04-01T08:09:59;95544.19;;;9.62;100.00
39243;BME280;29823;47.404;8.566;2023-04-01T08:12:38;95541.47;;;9.35;100.00
39243;BME280;29823;47.404;8.566;2023-04-01T08:15:15;95538.22;;;9.33;100.00
39243;BME280;29823;47.404;8.566;2023-04-01T08:17:59;95531.75;;;9.29;100.00
39243;BME280;29823;47.404;8.566;2023-04-01T08:20:35;95531.03;;;9.34;100.00
39243;BME280;29823;47.404;8.566;2023-04-01T08:23:07;95536.22;;;9.24;100.00
39243;BME280;29823;47.404;8.566;2023-04-01T08:25:44;95537.22;;;9.01;100.00
39243;BME280;29823;47.404;8.566;2023-04-01T08:28:19;95535.06;;;8.98;100.00
39243;BME280;29823;47.404;8.566;2023-04-01T08:30:52;95538.44;;;9.10;100.00
39243;BME280;29823;47.404;8.566;2023-04-01T08:33:25;95539.13;;;9.22;100.00
39243;BME280;29823;47.404;8.566;2023-04-01T08:35:57;95545.44;;;9.16;100.00
39243;BME280;29823;47.404;8.566;2023-04-01T08:38:31;95543.06;;;8.98;100.00
39243;BME280;29823;47.404;8.566;2023-04-01T08:41:10;95542.56;;;9.01;100.00
39243;BME280;29823;47.404;8.566;2023-04-01T08:44:04;95552.13;;;8.97;100.00
39243;BME280;29823;47.404;8.566;2023-04-01T08:46:56;95540.66;;;8.97;100.00
39243;BME280;29823;47.404;8.566;2023-04-01T08:49:48;95534.50;;;8.96;100.00
39243;BME280;29823;47.404;8.566;2023-04-01T08:52:35;95535.41;;;8.85;100.00
39243;BME280;29823;47.404;8.566;2023-04-01T08:58:21;95548.03;;;9.11;100.00
39243;BME280;29823;47.404;8.566;2023-04-01T09:00:54;95550.78;;;9.16;100.00
39243;BME280;29823;47.404;8.566;2023-04-01T09:03:52;95549.84;;;9.06;100.00
39243;BME280;29823;47.404;8.566;2023-04-01T09:06:28;95566.78;;;9.00;100.00
39243;BME280;29823;47.404;8.566;2023-04-01T09:12:19;95562.38;;;8.89;100.00
39243;BME280;29823;47.404;8.566;2023-04-01T09:15:16;95567.56;;;8.79;100.00
39243;BME280;29823;47.404;8.566;2023-04-01T09:21:09;95561.44;;;9.16;100.00
39243;BME280;29823;47.404;8.566;2023-04-01T09:23:53;95572.88;;;9.33;100.00
39243;BME280;29823;47.404;8.566;2023-04-01T09:26:48;95570.28;;;9.38;100.00
39243;BME280;29823;47.404;8.566;2023-04-01T09:32:33;95562.31;;;9.60;100.00
39243;BME280;29823;47.404;8.566;2023-04-01T09:35:20;95554.50;;;9.53;100.00
39243;BME280;29823;47.404;8.566;2023-04-01T09:37:54;95561.75;;;9.58;100.00
39243;BME280;29823;47.404;8.566;2023-04-01T09:40:34;95552.25;;;9.67;100.00
39243;BME280;29823;47.404;8.566;2023-04-01T09:43:24;95558.97;;;9.69;100.00
39243;BME280;29823;47.404;8.566;2023-04-01T09:46:11;95556.84;;;9.50;100.00
39243;BME280;29823;47.404;8.566;2023-04-01T09:49:06;95560.25;;;9.88;100.00
39243;BME280;29823;47.404;8.566;2023-04-01T09:51:51;95540.75;;;10.09;100.00
39243;BME280;29823;47.404;8.566;2023-04-01T09:54:32;95544.41;;;10.25;100.00
39243;BME280;29823;47.404;8.566;2023-04-01T09:57:33;95548.78;;;10.67;100.00
39243;BME280;29823;47.404;8.566;2023-04-01T10:00:20;95538.69;;;11.11;100.00
39243;BME280;29823;47.404;8.566;2023-04-01T10:06:17;95527.84;;;10.91;100.00
39243;BME280;29823;47.404;8.566;2023-04-01T10:09:27;95535.34;;;11.35;100.00
39243;BME280;29823;47.404;8.566;2023-04-01T10:12:41;95531.66;;;11.46;100.00
39243;BME280;29823;47.404;8.566;2023-04-01T10:15:33;95532.63;;;11.25;100.00
39243;BME280;29823;47.404;8.566;2023-04-01T10:18:32;95547.25;;;11.13;100.00
39243;BME280;29823;47.404;8.566;2023-04-01T10:24:30;95556.19;;;10.92;100.00
39243;BME280;29823;47.404;8.566;2023-04-01T10:27:18;95540.50;;;10.69;100.00
39243;BME280;29823;47.404;8.566;2023-04-01T10:30:29;95534.00;;;10.91;100.00
39243;BME280;29823;47.404;8.566;2023-04-01T10:33:23;95530.75;;;11.77;100.00
39243;BME280;29823;47.404;8.566;2023-04-01T10:36:27;95542.75;;;11.60;100.00
39243;BME280;29823;47.404;8.566;2023-04-01T10:39:29;95544.38;;;11.71;100.00
39243;BME280;29823;47.404;8.566;2023-04-01T10:42:32;95539.59;;;11.31;100.00
39243;BME280;29823;47.404;8.566;2023-04-01T10:48:23;95541.00;;;11.44;100.00
39243;BME280;29823;47.404;8.566;2023-04-01T10:54:35;95537.16;;;10.83;100.00
39243;BME280;29823;47.404;8.566;2023-04-01T11:00:37;95526.50;;;11.35;100.00
39243;BME280;29823;47.404;8.566;2023-04-01T11:13:14;95542.00;;;11.74;100.00
39243;BME280;29823;47.404;8.566;2023-04-01T11:16:07;95545.19;;;11.76;100.00
39243;BME280;29823;47.404;8.566;2023-04-01T11:22:19;95536.22;;;12.12;100.00
39243;BME280;29823;47.404;8.566;2023-04-01T11:25:21;95540.88;;;11.65;100.00
39243;BME280;29823;47.404;8.566;2023-04-01T11:28:16;95512.25;;;11.71;100.00
39243;BME280;29823;47.404;8.566;2023-04-01T11:31:04;95526.81;;;11.43;100.00
39243;BME280;29823;47.404;8.566;2023-04-01T11:33:44;95543.38;;;11.35;100.00
39243;BME280;29823;47.404;8.566;2023-04-01T11:36:20;95535.66;;;10.97;100.00
39243;BME280;29823;47.404;8.566;2023-04-01T11:39:11;95539.84;;;10.88;100.00
39243;BME280;29823;47.404;8.566;2023-04-01T11:41:52;95540.78;;;11.09;100.00
39243;BME280;29823;47.404;8.566;2023-04-01T11:44:26;95536.38;;;11.24;100.00
39243;BME280;29823;47.404;8.566;2023-04-01T11:47:09;95547.22;;;10.71;100.00
39243;BME280;29823;47.404;8.566;2023-04-01T11:49:50;95551.13;;;10.95;100.00
39243;BME280;29823;47.404;8.566;2023-04-01T11:52:33;95560.75;;;10.91;100.00
39243;BME280;29823;47.404;8.566;2023-04-01T11:55:15;95548.69;;;10.57;100.00
39243;BME280;29823;47.404;8.566;2023-04-01T11:57:56;95548.53;;;10.69;100.00
39243;BME280;29823;47.404;8.566;2023-04-01T12:00:49;95546.78;;;10.84;100.00
39243;BME280;29823;47.404;8.566;2023-04-01T12:03:42;95548.66;;;11.25;100.00
39243;BME280;29823;47.404;8.566;2023-04-01T12:06:16;95554.94;;;11.46;100.00
39243;BME280;29823;47.404;8.566;2023-04-01T12:08:50;95545.09;;;11.56;100.00
39243;BME280;29823;47.404;8.566;2023-04-01T12:11:28;95551.13;;;11.37;100.00
39243;BME280;29823;47.404;8.566;2023-04-01T12:14:07;95541.47;;;11.72;100.00
39243;BME280;29823;47.404;8.566;2023-04-01T12:16:49;95527.94;;;12.34;100.00
39243;BME280;29823;47.404;8.566;2023-04-01T12:19:26;95532.00;;;12.61;100.00
39243;BME280;29823;47.404;8.566;2023-04-01T12:22:23;95531.47;;;12.54;100.00
39243;BME280;29823;47.404;8.566;2023-04-01T12:25:05;95538.66;;;12.24;100.00
39243;BME280;29823;47.404;8.566;2023-04-01T12:27:41;95540.31;;;12.45;100.00
39243;BME280;29823;47.404;8.566;2023-04-01T12:30:20;95533.25;;;11.99;100.00
39243;BME280;29823;47.404;8.566;2023-04-01T12:33:00;95548.41;;;11.27;100.00
39243;BME280;29823;47.404;8.566;2023-04-01T12:35:41;95547.84;;;10.83;100.00
39243;BME280;29823;47.404;8.566;2023-04-01T12:38:23;95546.78;;;10.84;100.00
39243;BME280;29823;47.404;8.566;2023-04-01T12:41:14;95540.41;;;11.32;100.00
39243;BME280;29823;47.404;8.566;2023-04-01T12:44:13;95543.94;;;11.94;100.00
39243;BME280;29823;47.404;8.566;2023-04-01T12:47:00;95534.44;;;12.73;100.00
39243;BME280;29823;47.404;8.566;2023-04-01T12:50:01;95529.94;;;13.87;100.00
39243;BME280;29823;47.404;8.566;2023-04-01T12:52:44;95525.00;;;14.09;94.93
39243;BME280;29823;47.404;8.566;2023-04-01T12:55:36;95524.25;;;14.85;92.43
39243;BME280;29823;47.404;8.566;2023-04-01T13:07:26;95524.41;;;14.22;76.43
39243;BME280;29823;47.404;8.566;2023-04-01T13:10:02;95520.22;;;14.49;83.95
39243;BME280;29823;47.404;8.566;2023-04-01T13:12:55;95518.06;;;14.85;81.24
39243;BME280;29823;47.404;8.566;2023-04-01T13:15:31;95509.53;;;15.06;83.57
39243;BME280;29823;47.404;8.566;2023-04-01T13:18:13;95522.84;;;14.06;85.74
39243;BME280;29823;47.404;8.566;2023-04-01T13:20:52;95516.13;;;14.03;89.18
39243;BME280;29823;47.404;8.566;2023-04-01T13:23:34;95525.66;;;14.39;84.77
39243;BME280;29823;47.404;8.566;2023-04-01T13:26:10;95535.16;;;13.48;84.19
39243;BME280;29823;47.404;8.566;2023-04-01T13:28:43;95513.66;;;13.58;84.91
39243;BME280;29823;47.404;8.566;2023-04-01T13:31:27;95522.22;;;13.60;79.72
39243;BME280;29823;47.404;8.566;2023-04-01T13:34:06;95514.13;;;13.70;84.19
39243;BME280;29823;47.404;8.566;2023-04-01T13:36:47;95520.75;;;13.19;87.18
39243;BME280;29823;47.404;8.566;2023-04-01T13:39:27;95513.78;;;13.08;85.80
39243;BME280;29823;47.404;8.566;2023-04-01T13:42:13;95504.13;;;13.07;88.96
39243;BME280;29823;47.404;8.566;2023-04-01T13:44:45;95515.91;;;13.06;87.55
39243;BME280;29823;47.404;8.566;2023-04-01T13:47:40;95524.50;;;12.53;91.74
39243;BME280;29823;47.404;8.566;2023-04-01T13:50:26;95522.91;;;12.77;88.15
39243;BME280;29823;47.404;8.566;2023-04-01T13:56:16;95510.00;;;12.89;90.86
39243;BME280;29823;47.404;8.566;2023-04-01T13:58:55;95519.94;;;12.69;92.47
39243;BME280;29823;47.404;8.566;2023-04-01T14:01:32;95510.56;;;12.71;89.51
39243;BME280;29823;47.404;8.566;2023-04-01T14:07:14;95499.31;;;12.49;89.23
39243;BME280;29823;47.404;8.566;2023-04-01T14:09:58;95508.66;;;12.82;100.00
39243;BME280;29823;47.404;8.566;2023-04-01T14:12:38;95504.66;;;13.14;96.12
39243;BME280;29823;47.404;8.566;2023-04-01T14:15:22;95493.66;;;13.06;91.32
39243;BME280;29823;47.404;8.566;2023-04-01T14:18:11;95492.88;;;12.85;94.25
39243;BME280;29823;47.404;8.566;2023-04-01T14:20:47;95486.44;;;12.71;95.25
39243;BME280;29823;47.404;8.566;2023-04-01T14:23:42;95488.56;;;12.44;94.29
39243;BME280;29823;47.404;8.566;2023-04-01T14:26:22;95504.66;;;12.49;96.68
39243;BME280;29823;47.404;8.566;2023-04-01T14:29:02;95504.09;;;12.52;100.00
39243;BME280;29823;47.404;8.566;2023-04-01T14:31:44;95505.44;;;12.20;100.00
39243;BME280;29823;47.404;8.566;2023-04-01T14:34:23;95519.00;;;11.93;100.00
39243;BME280;29823;47.404;8.566;2023-04-01T14:37:03;95531.66;;;11.00;100.00
39243;BME280;29823;47.404;8.566;2023-04-01T14:40:05;95563.50;;;9.47;100.00
39243;BME280;29823;47.404;8.566;2023-04-01T14:43:14;95571.13;;;9.22;100.00
39243;BME280;29823;47.404;8.566;2023-04-01T14:46:25;95561.66;;;8.93;100.00